Time;durP1;ratioP1;P1;durP2;ratioP2;P2;SDS_P1;SDS_P2;PMS_P1;PMS_P2;Temp;Humidity;BMP_temperature;BMP_pressure;BME280_temperature;BME280_humidity;BME280_pressure;Samples;Min_cycle;Max_cycle;Signal;HPM_P1;HPM_P2
2023/01/06 00:00:26;;;;;;;;;8.50;7.00;;;;;10.60;85.52;101617.56;5071151;28;10064;-65
2023/01/06 00:02:53;;;;;;;;;6.75;5.75;;;;;10.57;85.54;101609.81;5072818;28;9848;-64
2023/01/06 00:05:19;;;;;;;;;9.75;6.00;;;;;10.52;85.46;101621.13;5073097;28;9962;-65
2023/01/06 00:07:49;;;;;;;;;11.50;7.50;;;;;10.52;85.36;101617.59;5062738;28;9829;-68
2023/01/06 00:10:15;;;;;;;;;6.50;5.00;;;;;10.45;85.68;101603.16;5073116;28;10729;-63
2023/01/06 00:12:49;;;;;;;;;4.50;4.50;;;;;10.43;85.75;101610.56;5073283;28;10219;-65
2023/01/06 00:15:17;;;;;;;;;5.00;5.00;;;;;10.46;85.68;101610.22;5063450;28;9888;-65
2023/01/06 00:17:44;;;;;;;;;4.75;4.75;;;;;10.50;86.00;101608.88;5072982;28;9908;-64
2023/01/06 00:20:12;;;;;;;;;5.00;2.00;;;;;10.51;85.24;101608.69;5073125;28;9931;-64
2023/01/06 00:22:39;;;;;;;;;6.50;4.00;;;;;10.56;85.30;101614.38;5058284;28;9989;-65
2023/01/06 00:25:09;;;;;;;;;3.50;2.50;;;;;10.61;85.06;101617.41;5063380;28;9934;-64
2023/01/06 00:27:35;;;;;;;;;4.25;3.50;;;;;10.56;84.48;101610.84;5071727;28;9859;-64
2023/01/06 00:30:03;;;;;;;;;6.00;2.00;;;;;10.57;84.91;101607.13;5072481;28;10034;-64
2023/01/06 00:32:30;;;;;;;;;1.75;1.75;;;;;10.62;84.73;101616.38;5071732;28;9818;-64
2023/01/06 00:34:57;;;;;;;;;1.50;1.50;;;;;10.62;84.62;101616.38;5063929;28;9912;-65
2023/01/06 00:37:24;;;;;;;;;3.25;1.75;;;;;10.62;84.66;101611.00;5071604;28;9840;-65
2023/01/06 00:39:51;;;;;;;;;4.75;2.00;;;;;10.49;84.68;101609.84;5072591;28;9775;-65
2023/01/06 00:42:17;;;;;;;;;1.50;1.50;;;;;10.56;84.71;101617.06;5070840;28;9823;-65
2023/01/06 00:44:44;;;;;;;;;2.25;2.25;;;;;10.53;84.23;101616.56;5068236;28;9764;-63
2023/01/06 00:47:11;;;;;;;;;2.50;2.00;;;;;10.60;84.32;101598.72;5068344;28;9614;-66
2023/01/06 00:49:38;;;;;;;;;4.00;4.00;;;;;10.62;83.96;101605.63;5069538;28;9751;-64
2023/01/06 00:52:04;;;;;;;;;1.00;1.00;;;;;10.64;83.99;101613.50;5053262;28;9747;-65
2023/01/06 00:54:31;;;;;;;;;4.00;3.00;;;;;10.63;83.94;101612.66;5068501;28;9798;-67
2023/01/06 00:56:57;;;;;;;;;2.00;2.00;;;;;10.60;83.81;101617.56;5071847;28;9880;-66
2023/01/06 00:59:25;;;;;;;;;2.50;2.50;;;;;10.60;83.89;101606.78;5071792;28;9843;-66
2023/01/06 01:01:55;;;;;;;;;2.50;2.00;;;;;10.62;83.93;101596.69;5071400;28;9992;-65
2023/01/06 01:04:23;;;;;;;;;3.50;3.25;;;;;10.55;83.64;101604.63;5066458;28;9813;-65
2023/01/06 01:06:51;;;;;;;;;5.50;4.50;;;;;10.58;83.85;101603.44;5073240;28;9849;-65
2023/01/06 01:09:25;;;;;;;;;4.00;4.00;;;;;10.63;83.86;101593.81;5072320;28;9821;-66
2023/01/06 01:14:49;;;;;;;;;6.00;4.50;;;;;10.67;83.61;101598.84;5059386;28;9834;-64
2023/01/06 01:17:21;;;;;;;;;6.00;5.00;;;;;10.65;83.63;101599.00;5068347;28;9740;-64
2023/01/06 01:19:49;;;;;;;;;5.00;5.00;;;;;10.60;83.59;101591.47;5052052;28;9866;-66
2023/01/06 01:22:16;;;;;;;;;6.25;6.25;;;;;10.65;83.82;101609.78;5053627;28;10093;-65
2023/01/06 01:24:43;;;;;;;;;4.25;4.25;;;;;10.66;83.62;101595.34;5055378;28;10144;-64
2023/01/06 01:27:10;;;;;;;;;6.75;5.75;;;;;10.67;83.65;101588.91;5071038;28;9884;-65
2023/01/06 01:29:36;;;;;;;;;7.50;7.50;;;;;10.74;83.07;101591.75;5071368;28;10560;-66
2023/01/06 01:32:03;;;;;;;;;8.50;7.50;;;;;10.68;83.21;101595.13;5071243;28;9830;-67
2023/01/06 01:34:30;;;;;;;;;8.50;7.00;;;;;10.68;83.45;101590.59;5058638;28;9893;-68
2023/01/06 01:36:56;;;;;;;;;9.00;8.00;;;;;10.63;83.59;101590.28;5060691;28;9995;-68
2023/01/06 01:39:27;;;;;;;;;9.75;6.00;;;;;10.64;84.08;101590.09;5070020;28;10886;-68
2023/01/06 01:41:55;;;;;;;;;7.75;7.75;;;;;10.62;83.73;101583.25;5067504;28;9964;-67
2023/01/06 01:44:57;;;;;;;;;7.00;6.25;;;;;10.61;84.13;101586.91;5066814;28;9873;-68
2023/01/06 01:47:42;;;;;;;;;8.25;7.00;;;;;10.63;83.79;101572.28;5062483;28;9877;-68
2023/01/06 01:50:26;;;;;;;;;8.75;6.75;;;;;10.57;83.78;101564.94;5070380;28;10022;-70
2023/01/06 01:52:57;;;;;;;;;5.75;5.75;;;;;10.66;84.18;101567.56;5057382;28;9972;-65
2023/01/06 01:55:26;;;;;;;;;7.50;7.50;;;;;10.67;83.91;101570.06;5070373;28;9985;-66
2023/01/06 01:57:55;;;;;;;;;10.75;8.25;;;;;10.68;83.68;101562.84;5064571;28;9924;-67
2023/01/06 02:00:22;;;;;;;;;6.50;6.50;;;;;10.59;84.01;101559.34;5065778;28;10007;-66
2023/01/06 02:02:49;;;;;;;;;13.75;10.00;;;;;10.64;84.09;101567.72;5051967;28;10684;-67
2023/01/06 02:05:21;;;;;;;;;13.25;10.25;;;;;10.63;84.34;101563.38;5056313;28;10128;-67
2023/01/06 02:07:48;;;;;;;;;9.50;9.50;;;;;10.63;84.10;101553.44;5063274;28;10129;-68
2023/01/06 02:10:18;;;;;;;;;6.75;6.00;;;;;10.69;84.23;101546.47;5068078;28;10001;-66
2023/01/06 02:12:48;;;;;;;;;9.50;8.75;;;;;10.64;83.76;101544.31;5068517;28;9842;-69
2023/01/06 02:15:15;;;;;;;;;8.75;6.00;;;;;10.69;83.75;101542.97;5064807;28;10062;-69
2023/01/06 02:18:03;;;;;;;;;7.50;7.50;;;;;10.66;83.86;101540.66;5065600;28;10143;-66
2023/01/06 02:21:02;;;;;;;;;10.25;8.50;;;;;10.58;83.78;101539.66;5070377;28;10217;-66
2023/01/06 02:24:08;;;;;;;;;8.50;7.75;;;;;10.52;83.98;101536.84;5071658;28;9895;-66
2023/01/06 02:26:54;;;;;;;;;11.25;8.50;;;;;10.52;83.98;101529.59;5064839;28;9972;-66
2023/01/06 02:29:35;;;;;;;;;11.00;11.00;;;;;10.46;83.81;101518.72;5066801;28;10162;-66
2023/01/06 02:32:27;;;;;;;;;9.50;8.25;;;;;10.44;84.00;101515.34;5062698;28;10019;-65
2023/01/06 02:35:19;;;;;;;;;11.75;10.00;;;;;10.43;84.08;101511.00;5055108;28;10137;-67
2023/01/06 02:37:58;;;;;;;;;12.75;8.75;;;;;10.43;83.79;101508.31;5061164;28;10149;-66
2023/01/06 02:40:47;;;;;;;;;8.50;7.25;;;;;10.44;83.75;101509.97;5068498;28;9980;-67
2023/01/06 02:43:27;;;;;;;;;6.50;6.50;;;;;10.49;83.57;101499.50;5069131;28;10021;-67
2023/01/06 02:46:10;;;;;;;;;5.00;5.00;;;;;10.48;83.47;101506.75;5068704;28;10011;-66
2023/01/06 02:49:03;;;;;;;;;5.00;5.00;;;;;10.52;83.11;101491.91;5068455;28;9976;-67
2023/01/06 02:51:49;;;;;;;;;10.75;5.75;;;;;10.51;83.14;101484.84;5068622;28;10046;-67
2023/01/06 02:54:31;;;;;;;;;5.50;5.50;;;;;10.50;82.91;101477.81;5064890;28;10043;-66
2023/01/06 02:57:17;;;;;;;;;5.25;5.25;;;;;10.49;82.72;101456.44;5069796;28;9829;-66
2023/01/06 02:59:53;;;;;;;;;3.00;3.00;;;;;10.52;82.75;101448.84;5054945;28;9928;-66
2023/01/06 03:02:21;;;;;;;;;4.00;4.00;;;;;10.45;82.36;101444.34;5070161;28;9894;-66
2023/01/06 03:04:52;;;;;;;;;5.00;4.50;;;;;10.48;82.75;101447.53;5058441;28;9926;-65
2023/01/06 03:07:21;;;;;;;;;7.25;4.75;;;;;10.43;82.39;101435.63;5051055;28;9767;-65
2023/01/06 03:09:52;;;;;;;;;2.75;1.25;;;;;10.51;82.36;101440.94;5060949;28;10076;-66
2023/01/06 03:13:10;;;;;;;;;3.75;2.00;;;;;10.53;82.08;101436.22;5052604;28;9930;-66
2023/01/06 03:15:37;;;;;;;;;3.50;3.50;;;;;10.49;82.12;101442.97;5065578;28;10492;-67
2023/01/06 03:18:04;;;;;;;;;1.50;1.50;;;;;10.54;81.96;101446.00;5069088;28;9892;-67
2023/01/06 03:20:33;;;;;;;;;4.50;4.50;;;;;10.46;81.82;101440.66;5063197;28;10461;-67
2023/01/06 03:23:00;;;;;;;;;1.75;1.75;;;;;10.46;82.01;101432.59;5051693;28;9908;-67
2023/01/06 03:25:26;;;;;;;;;2.00;2.00;;;;;10.45;81.52;101420.13;5066184;28;9935;-67
2023/01/06 03:27:55;;;;;;;;;5.25;3.25;;;;;10.43;82.08;101427.56;5067775;28;9656;-67
2023/01/06 03:30:27;;;;;;;;;2.00;2.00;;;;;10.50;81.75;101429.34;5069238;28;9778;-66
2023/01/06 03:33:39;;;;;;;;;2.00;2.00;;;;;10.51;81.60;101430.19;5072051;28;9745;-67
2023/01/06 03:36:18;;;;;;;;;2.50;1.75;;;;;10.49;81.39;101410.66;5031589;28;9819;-67
2023/01/06 03:39:10;;;;;;;;;1.50;1.50;;;;;10.50;81.53;101401.59;5009662;28;9748;-67
2023/01/06 03:44:37;;;;;;;;;2.00;2.00;;;;;10.48;81.05;101400.94;5067116;28;9606;-67
2023/01/06 03:47:25;;;;;;;;;1.00;1.00;;;;;10.47;81.08;101408.16;5073836;28;9755;-68
2023/01/06 03:50:01;;;;;;;;;4.50;1.00;;;;;10.47;81.30;101389.31;5072272;28;9752;-68
2023/01/06 03:52:32;;;;;;;;;2.00;1.25;;;;;10.44;80.93;101400.44;5070723;28;9672;-67
2023/01/06 03:55:09;;;;;;;;;1.00;1.00;;;;;10.52;81.21;101403.06;5065084;28;9660;-66
2023/01/06 03:57:43;;;;;;;;;2.75;1.75;;;;;10.48;80.85;101404.47;5059422;28;9672;-68
2023/01/06 04:00:17;;;;;;;;;1.00;1.00;;;;;10.49;80.89;101381.06;5067731;28;9664;-68
2023/01/06 04:02:51;;;;;;;;;0.50;0.50;;;;;10.42;80.96;101385.50;5070969;28;9692;-68
2023/01/06 04:05:24;;;;;;;;;1.00;1.00;;;;;10.49;80.89;101383.75;5071722;28;9744;-67
2023/01/06 04:07:52;;;;;;;;;1.50;1.00;;;;;10.47;80.41;101380.44;5071419;28;9662;-67
2023/01/06 04:10:21;;;;;;;;;1.00;1.00;;;;;10.52;80.20;101378.84;5067966;28;9916;-67
2023/01/06 04:12:51;;;;;;;;;1.00;1.00;;;;;10.52;80.18;101376.16;5059384;28;9844;-65
2023/01/06 04:15:24;;;;;;;;;1.75;1.75;;;;;10.51;80.41;101387.94;5069537;28;9580;-67
2023/01/06 04:17:54;;;;;;;;;0.25;0.25;;;;;10.45;80.99;101369.84;5066759;28;9847;-66
2023/01/06 04:20:26;;;;;;;;;2.00;1.75;;;;;10.45;80.75;101366.28;5068376;28;10396;-67
2023/01/06 04:22:59;;;;;;;;;1.00;1.00;;;;;10.46;80.85;101370.69;5049082;28;9859;-66
2023/01/06 04:25:31;;;;;;;;;1.00;1.00;;;;;10.38;81.13;101372.41;5057381;28;9742;-67
2023/01/06 04:28:04;;;;;;;;;1.00;1.00;;;;;10.35;81.48;101364.69;5066733;28;9593;-67
2023/01/06 04:30:31;;;;;;;;;2.00;1.50;;;;;10.37;81.32;101353.72;5064647;28;9682;-65
2023/01/06 04:32:57;;;;;;;;;2.00;2.00;;;;;10.36;81.29;101346.69;5071561;28;9883;-67
2023/01/06 04:35:24;;;;;;;;;1.25;1.00;;;;;10.38;81.28;101348.19;5072430;28;10393;-67
2023/01/06 04:37:51;;;;;;;;;2.00;2.00;;;;;10.45;81.24;101342.06;5067277;28;9736;-67
2023/01/06 04:40:18;;;;;;;;;2.50;2.50;;;;;10.48;81.14;101341.72;5071094;28;9771;-68
2023/01/06 04:43:03;;;;;;;;;2.00;2.00;;;;;10.48;80.89;101328.25;5067173;28;9686;-67
2023/01/06 04:45:29;;;;;;;;;3.00;2.00;;;;;10.46;81.09;101341.06;5072478;28;9835;-65
2023/01/06 04:47:56;;;;;;;;;2.00;2.00;;;;;10.39;81.29;101322.13;5072780;28;10444;-67
2023/01/06 04:50:22;;;;;;;;;4.50;4.50;;;;;10.41;81.09;101317.38;5071618;28;9728;-68
2023/01/06 04:52:48;;;;;;;;;2.50;2.50;;;;;10.52;81.09;101329.56;5059943;28;9858;-67
2023/01/06 04:55:15;;;;;;;;;4.00;3.50;;;;;10.48;80.78;101314.81;5065975;28;9894;-68
2023/01/06 04:57:42;;;;;;;;;4.00;3.50;;;;;10.39;81.31;101331.03;5069952;28;9937;-66
2023/01/06 05:00:09;;;;;;;;;4.00;4.00;;;;;10.44;80.94;101311.63;5072520;28;10079;-67
2023/01/06 05:02:35;;;;;;;;;2.00;2.00;;;;;10.44;81.14;101306.25;5062176;28;9919;-67
2023/01/06 05:05:02;;;;;;;;;4.75;3.00;;;;;10.40;81.69;101305.78;5055907;28;9874;-66
2023/01/06 05:07:28;;;;;;;;;4.25;3.50;;;;;10.42;81.60;101302.91;5071655;28;10723;-67
2023/01/06 05:09:55;;;;;;;;;3.00;3.00;;;;;10.42;82.07;101302.91;5072087;28;10014;-68
2023/01/06 05:12:21;;;;;;;;;4.00;3.00;;;;;10.45;82.36;101291.78;5061929;28;9816;-67
2023/01/06 05:14:48;;;;;;;;;3.75;2.00;;;;;10.44;82.09;101300.88;5069533;28;9763;-68
2023/01/06 05:17:14;;;;;;;;;1.00;1.00;;;;;10.37;82.96;101299.91;5068556;28;9928;-67
2023/01/06 05:19:43;;;;;;;;;2.00;2.00;;;;;10.34;83.41;101300.28;5071750;28;10598;-66
2023/01/06 05:22:10;;;;;;;;;2.75;2.75;;;;;10.38;83.60;101299.75;5071106;28;9844;-68
2023/01/06 05:24:37;;;;;;;;;2.00;2.00;;;;;10.38;83.68;101297.06;5070943;28;9904;-66
2023/01/06 05:27:03;;;;;;;;;3.00;1.50;;;;;10.40;83.58;101296.88;5069718;28;9801;-67
2023/01/06 05:29:30;;;;;;;;;2.00;1.75;;;;;10.35;84.01;101299.28;5060268;28;10619;-67
2023/01/06 05:31:57;;;;;;;;;1.25;1.25;;;;;10.32;84.20;101292.38;5051929;28;9993;-66
2023/01/06 05:34:24;;;;;;;;;3.00;3.00;;;;;10.30;84.22;101294.44;5051263;28;9774;-67
2023/01/06 05:36:50;;;;;;;;;2.50;2.00;;;;;10.33;84.99;101303.97;5064337;28;9897;-67
2023/01/06 05:39:16;;;;;;;;;4.50;4.00;;;;;10.28;84.75;101301.84;5063847;28;10012;-66
2023/01/06 05:41:43;;;;;;;;;3.00;3.00;;;;;10.26;85.14;101297.69;5051834;28;9853;-68
2023/01/06 05:44:09;;;;;;;;;2.75;2.75;;;;;10.25;85.50;101309.44;5051268;28;9915;-69
2023/01/06 05:46:36;;;;;;;;;7.75;5.75;;;;;10.15;85.58;101312.34;5065231;28;10157;-66
2023/01/06 05:49:02;;;;;;;;;5.00;3.00;;;;;10.13;86.44;101311.72;5063781;28;9856;-67
2023/01/06 05:51:29;;;;;;;;;5.50;5.00;;;;;10.18;86.20;101316.53;5068530;28;9910;-68
2023/01/06 05:53:55;;;;;;;;;5.00;5.00;;;;;10.11;86.41;101321.78;5060379;28;9953;-66
2023/01/06 05:56:23;;;;;;;;;4.75;3.50;;;;;10.10;86.82;101326.34;5070951;28;9851;-67
2023/01/06 05:58:51;;;;;;;;;4.00;4.00;;;;;10.07;87.42;101315.09;5063697;28;9984;-65
2023/01/06 06:01:23;;;;;;;;;5.25;5.25;;;;;10.08;87.45;101320.28;5054745;28;9874;-67
2023/01/06 06:03:50;;;;;;;;;5.00;5.00;;;;;10.12;87.53;101324.28;5068801;28;10054;-67
2023/01/06 06:06:18;;;;;;;;;4.00;4.00;;;;;10.11;87.83;101314.56;5070772;28;9999;-69
2023/01/06 06:08:44;;;;;;;;;5.25;4.50;;;;;10.12;87.89;101316.22;5064443;28;10084;-67
2023/01/06 06:11:13;;;;;;;;;5.75;5.75;;;;;10.18;88.23;101327.31;5069431;28;9900;-68
2023/01/06 06:13:50;;;;;;;;;7.25;6.50;;;;;10.14;87.58;101316.06;5070771;28;10767;-67
2023/01/06 06:16:19;;;;;;;;;5.75;5.00;;;;;10.12;87.99;101321.59;5052586;28;9998;-68
2023/01/06 06:18:52;;;;;;;;;8.50;8.50;;;;;10.04;88.20;101318.97;5058494;28;10621;-67
2023/01/06 06:21:22;;;;;;;;;5.00;5.00;;;;;10.06;88.74;101346.53;5066951;28;10152;-68
2023/01/06 06:23:50;;;;;;;;;6.00;5.00;;;;;10.08;88.64;101343.66;5051929;28;10131;-69
2023/01/06 06:26:17;;;;;;;;;6.50;6.50;;;;;10.07;88.80;101340.13;5050305;28;9983;-69
2023/01/06 06:28:43;;;;;;;;;5.50;5.50;;;;;10.13;88.45;101347.50;5057988;28;10151;-68
2023/01/06 06:31:14;;;;;;;;;3.75;3.50;;;;;10.18;88.71;101346.97;5070631;28;10024;-68
2023/01/06 06:33:41;;;;;;;;;5.75;5.75;;;;;10.21;88.61;101351.13;5064015;28;10142;-67
2023/01/06 06:36:10;;;;;;;;;5.25;5.25;;;;;10.20;88.51;101371.00;5069013;28;10848;-68
2023/01/06 06:38:38;;;;;;;;;5.25;4.50;;;;;10.18;88.48;101359.59;5062754;28;10071;-67
2023/01/06 06:41:04;;;;;;;;;6.00;6.00;;;;;10.10;88.69;101358.63;5064811;28;9952;-67
2023/01/06 06:43:31;;;;;;;;;6.00;6.00;;;;;10.12;89.24;101359.25;5070491;28;10053;-68
2023/01/06 06:45:58;;;;;;;;;5.00;4.75;;;;;10.11;88.96;101359.47;5065111;28;10026;-68
2023/01/06 06:48:27;;;;;;;;;5.00;4.00;;;;;10.14;89.05;101364.50;5063655;28;9934;-67
2023/01/06 06:51:01;;;;;;;;;6.25;3.25;;;;;10.14;88.68;101375.25;5066397;28;10011;-67
2023/01/06 06:53:28;;;;;;;;;4.00;4.00;;;;;10.16;89.25;101387.47;5050349;28;9841;-68
2023/01/06 06:55:55;;;;;;;;;2.75;2.75;;;;;10.17;88.98;101385.66;5064650;28;9833;-67
2023/01/06 06:58:23;;;;;;;;;4.50;4.50;;;;;10.18;89.27;101381.94;5065383;28;9971;-68
2023/01/06 07:00:50;;;;;;;;;3.00;3.00;;;;;10.15;88.84;101368.84;5067429;28;10064;-66
2023/01/06 07:03:16;;;;;;;;;2.00;2.00;;;;;10.13;89.29;101376.28;5058987;28;9763;-67
2023/01/06 07:05:44;;;;;;;;;0.75;0.50;;;;;10.11;88.98;101380.97;5067790;28;9889;-69
2023/01/06 07:08:11;;;;;;;;;1.00;1.00;;;;;10.07;89.15;101388.56;5064079;28;9677;-68
2023/01/06 07:10:38;;;;;;;;;1.75;1.00;;;;;10.03;88.80;101386.41;5067895;28;10728;-67
2023/01/06 07:13:05;;;;;;;;;2.00;2.00;;;;;10.04;88.86;101409.59;5051084;28;9885;-68
2023/01/06 07:15:32;;;;;;;;;1.50;1.00;;;;;10.03;88.38;101421.38;5051457;28;11779;-67
2023/01/06 07:18:03;;;;;;;;;2.00;0.50;;;;;10.00;88.24;101419.84;5058570;28;9730;-68
2023/01/06 07:20:34;;;;;;;;;1.00;1.00;;;;;9.96;87.81;101420.38;5069938;28;9717;-68
2023/01/06 07:23:00;;;;;;;;;2.00;1.75;;;;;9.99;88.25;101425.44;5070298;28;9743;-68
2023/01/06 07:25:28;;;;;;;;;3.00;3.00;;;;;10.03;88.23;101432.97;5059097;28;9753;-68
2023/01/06 07:27:56;;;;;;;;;1.75;1.00;;;;;10.03;87.65;101432.97;5069463;28;9862;-69
2023/01/06 07:30:24;;;;;;;;;0.75;0.75;;;;;10.02;87.70;101436.69;5066446;28;9853;-67
2023/01/06 07:32:50;;;;;;;;;2.50;1.50;;;;;10.01;87.33;101440.38;5065818;28;9671;-68
2023/01/06 07:35:17;;;;;;;;;1.00;1.00;;;;;9.97;86.94;101447.13;5063843;28;9843;-67
2023/01/06 07:37:44;;;;;;;;;0.75;0.75;;;;;9.97;86.69;101447.13;5051895;28;9836;-68
2023/01/06 07:40:10;;;;;;;;;1.50;0.25;;;;;9.96;86.67;101452.66;5065245;28;9757;-67
2023/01/06 07:42:37;;;;;;;;;1.75;1.75;;;;;9.91;86.33;101443.28;5060106;28;9815;-67
2023/01/06 07:45:04;;;;;;;;;1.50;0.25;;;;;9.90;86.03;101455.06;5067664;28;10060;-69
2023/01/06 07:47:30;;;;;;;;;0.75;0.75;;;;;9.94;86.16;101450.16;5064472;28;10453;-66
2023/01/06 07:49:56;;;;;;;;;5.25;2.25;;;;;9.99;85.80;101463.09;5061640;28;9828;-67
2023/01/06 07:52:23;;;;;;;;;1.50;1.50;;;;;9.99;85.52;101468.47;5062447;28;9875;-67
2023/01/06 07:54:49;;;;;;;;;0.00;0.00;;;;;10.03;85.35;101475.16;5065382;28;10092;-68
2023/01/06 07:57:16;;;;;;;;;0.50;0.50;;;;;10.02;84.97;101489.63;5058187;28;9811;-68
2023/01/06 07:59:43;;;;;;;;;2.00;1.00;;;;;9.97;84.76;101494.72;5062831;28;9736;-68
2023/01/06 08:02:10;;;;;;;;;1.00;1.00;;;;;9.91;84.54;101502.44;5058435;28;9676;-67
2023/01/06 08:04:36;;;;;;;;;2.00;2.00;;;;;9.90;84.68;101503.47;5064020;28;9666;-67
2023/01/06 08:07:03;;;;;;;;;0.25;0.00;;;;;9.90;84.25;101513.38;5055733;28;9664;-67
2023/01/06 08:09:29;;;;;;;;;1.00;0.00;;;;;9.91;84.08;101529.31;5058321;28;10552;-67
2023/01/06 08:11:58;;;;;;;;;1.00;1.00;;;;;9.90;83.49;101524.13;5066667;28;9733;-68
2023/01/06 08:14:24;;;;;;;;;1.50;1.00;;;;;9.88;83.98;101526.16;5059388;28;9662;-68
2023/01/06 08:16:51;;;;;;;;;0.25;0.25;;;;;9.83;83.50;101521.28;5070904;28;9950;-67
2023/01/06 08:19:17;;;;;;;;;1.00;1.00;;;;;9.69;83.03;101522.00;5068021;28;9833;-67
2023/01/06 08:21:44;;;;;;;;;1.00;1.00;;;;;9.70;82.77;101529.06;5064388;28;9785;-68
2023/01/06 08:24:10;;;;;;;;;0.00;0.00;;;;;9.73;82.44;101533.25;5063147;28;10404;-67
2023/01/06 08:26:37;;;;;;;;;0.25;0.25;;;;;9.77;82.62;101538.13;5072765;28;9718;-68
2023/01/06 08:29:03;;;;;;;;;0.00;0.00;;;;;9.74;81.84;101532.25;5066723;28;9569;-66
2023/01/06 08:31:29;;;;;;;;;0.00;0.00;;;;;9.66;81.39;101533.94;5066043;28;9709;-67
2023/01/06 08:33:56;;;;;;;;;1.00;0.50;;;;;9.60;81.30;101534.63;5063010;28;9653;-68
2023/01/06 08:36:23;;;;;;;;;0.75;0.00;;;;;9.64;81.07;101533.28;5063323;28;9795;-67
2023/01/06 08:38:51;;;;;;;;;1.00;1.00;;;;;9.68;81.21;101555.25;5065501;28;9814;-67
2023/01/06 08:41:18;;;;;;;;;0.00;0.00;;;;;9.70;81.29;101549.72;5062623;28;9799;-68
2023/01/06 08:43:45;;;;;;;;;1.25;0.75;;;;;9.69;80.74;101565.03;5054805;28;9743;-68
2023/01/06 08:46:16;;;;;;;;;0.00;0.00;;;;;9.69;80.26;101567.72;5055115;28;10588;-66
2023/01/06 08:48:43;;;;;;;;;0.00;0.00;;;;;9.70;80.61;101579.31;5057385;28;9676;-68
2023/01/06 08:51:13;;;;;;;;;0.00;0.00;;;;;9.60;79.73;101577.66;5066386;28;9704;-68
2023/01/06 08:53:40;;;;;;;;;1.75;0.00;;;;;9.70;80.25;101590.06;5055067;28;9800;-69
2023/01/06 08:56:12;;;;;;;;;0.00;0.00;;;;;9.72;79.58;101579.97;5071870;28;9706;-67
2023/01/06 08:58:39;;;;;;;;;0.00;0.00;;;;;9.66;79.33;101587.69;5061266;28;9862;-67
2023/01/06 09:01:05;;;;;;;;;0.25;0.25;;;;;9.65;79.50;101585.19;5063394;28;9772;-68
2023/01/06 09:03:32;;;;;;;;;0.00;0.00;;;;;9.72;79.68;101582.66;5069399;28;9619;-67
2023/01/06 09:05:58;;;;;;;;;0.50;0.50;;;;;9.80;79.32;101588.00;5069313;28;9756;-69
2023/01/06 09:08:24;;;;;;;;;0.00;0.00;;;;;9.87;79.19;101591.69;5066097;28;10006;-68
2023/01/06 09:10:51;;;;;;;;;1.00;1.00;;;;;9.83;78.86;101588.50;5063034;28;9809;-68
2023/01/06 09:13:17;;;;;;;;;0.00;0.00;;;;;9.87;78.86;101594.38;5064663;28;9812;-68
2023/01/06 09:15:47;;;;;;;;;1.00;0.00;;;;;9.89;79.44;101598.59;5063454;28;9736;-68
2023/01/06 09:18:14;;;;;;;;;0.00;0.00;;;;;9.91;78.78;101587.66;5063919;28;9749;-68
2023/01/06 09:20:41;;;;;;;;;0.00;0.00;;;;;9.96;78.86;101587.13;5063298;28;10664;-67
2023/01/06 09:23:07;;;;;;;;;1.00;0.00;;;;;10.00;78.79;101591.16;5057736;28;9732;-67
2023/01/06 09:25:34;;;;;;;;;1.00;1.00;;;;;10.05;78.77;101588.81;5069849;28;9725;-68
2023/01/06 09:28:00;;;;;;;;;0.75;0.75;;;;;10.08;78.56;101597.34;5062513;28;9664;-68
2023/01/06 09:30:26;;;;;;;;;0.00;0.00;;;;;10.17;78.61;101600.88;5067400;28;9749;-68
2023/01/06 09:32:53;;;;;;;;;2.00;1.00;;;;;10.22;78.54;101606.59;5055533;28;9770;-68
2023/01/06 09:35:19;;;;;;;;;0.00;0.00;;;;;10.20;78.05;101605.91;5051623;28;9599;-66
2023/01/06 09:37:46;;;;;;;;;0.00;0.00;;;;;10.19;78.03;101609.59;5054361;28;10416;-67
2023/01/06 09:40:24;;;;;;;;;2.00;1.00;;;;;10.13;78.08;101618.38;5055516;28;9614;-68
2023/01/06 09:43:00;;;;;;;;;0.00;0.00;;;;;10.19;77.95;101628.44;5055998;28;9815;-67
2023/01/06 09:45:37;;;;;;;;;2.00;1.00;;;;;10.18;77.68;101637.53;5058279;28;9596;-69
2023/01/06 09:48:10;;;;;;;;;0.00;0.00;;;;;10.26;77.85;101642.94;5051539;28;9886;-67
2023/01/06 09:50:42;;;;;;;;;0.00;0.00;;;;;10.32;78.12;101642.22;5051848;28;10355;-68
2023/01/06 09:53:21;;;;;;;;;0.00;0.00;;;;;10.34;77.67;101656.34;5065874;28;9656;-67
2023/01/06 09:55:56;;;;;;;;;1.00;0.00;;;;;10.31;77.91;101662.06;5061753;28;9835;-68
2023/01/06 09:58:30;;;;;;;;;0.50;0.50;;;;;10.31;77.99;101661.25;5051367;28;9708;-68
2023/01/06 10:01:03;;;;;;;;;0.00;0.00;;;;;10.37;78.00;101647.06;5060677;28;9763;-67
2023/01/06 10:03:30;;;;;;;;;1.25;1.00;;;;;10.39;77.45;101647.75;5068127;28;9664;-68
2023/01/06 10:06:21;;;;;;;;;0.75;0.75;;;;;10.39;77.43;101651.28;5070531;28;9688;-67
2023/01/06 10:08:59;;;;;;;;;0.00;0.00;;;;;10.24;77.42;101666.44;5069563;28;9668;-67
2023/01/06 10:12:13;;;;;;;;;2.25;0.00;;;;;10.28;76.75;101661.56;5067644;28;9744;-67
2023/01/06 10:15:16;;;;;;;;;0.00;0.00;;;;;10.32;76.39;101663.75;5064084;28;9724;-68
2023/01/06 10:18:16;;;;;;;;;0.75;0.00;;;;;10.37;76.05;101671.31;5058100;28;9787;-68
2023/01/06 10:21:12;;;;;;;;;1.25;0.00;;;;;10.46;76.33;101669.44;5057247;28;9668;-67
2023/01/06 10:23:49;;;;;;;;;0.25;0.00;;;;;10.44;75.23;101683.06;5062511;28;9726;-67
2023/01/06 10:26:28;;;;;;;;;0.00;0.00;;;;;10.37;75.55;101676.69;5070020;28;9624;-68
2023/01/06 10:29:01;;;;;;;;;1.00;0.00;;;;;10.45;74.99;101689.28;5068466;28;9655;-68
2023/01/06 10:31:33;;;;;;;;;0.00;0.00;;;;;10.46;74.49;101683.75;5054542;28;10428;-68
2023/01/06 10:34:01;;;;;;;;;2.50;0.00;;;;;10.45;74.66;101684.75;5055532;28;9783;-67
2023/01/06 10:36:39;;;;;;;;;0.00;0.00;;;;;10.41;74.24;101694.16;5070228;28;9753;-68
2023/01/06 10:39:14;;;;;;;;;0.50;0.00;;;;;10.45;73.73;101694.66;5064578;28;9801;-67
2023/01/06 10:41:55;;;;;;;;;0.00;0.00;;;;;10.43;74.32;101686.78;5070371;28;9778;-68
2023/01/06 10:44:22;;;;;;;;;0.00;0.00;;;;;10.36;73.94;101675.00;5070066;28;9717;-68
2023/01/06 10:46:48;;;;;;;;;0.00;0.00;;;;;10.28;73.80;101677.72;5070459;28;9829;-68
2023/01/06 10:49:20;;;;;;;;;0.00;0.00;;;;;10.31;73.79;101669.31;5061704;28;9769;-67
2023/01/06 10:51:51;;;;;;;;;0.25;0.25;;;;;10.31;73.92;101672.00;5055158;28;9800;-67
2023/01/06 10:54:22;;;;;;;;;0.00;0.00;;;;;10.37;73.79;101657.84;5069387;28;9876;-66
2023/01/06 10:57:01;;;;;;;;;2.50;0.50;;;;;10.36;73.92;101673.16;5051524;28;9811;-67
2023/01/06 10:59:29;;;;;;;;;0.25;0.00;;;;;10.39;73.16;101675.50;5069639;28;9664;-69
2023/01/06 11:01:56;;;;;;;;;0.00;0.00;;;;;10.40;73.06;101660.19;5065739;28;9659;-66
2023/01/06 11:04:25;;;;;;;;;2.00;0.00;;;;;10.43;73.23;101672.47;5061486;28;9741;-67
2023/01/06 11:07:00;;;;;;;;;0.00;0.00;;;;;10.38;73.57;101662.25;5061863;28;9916;-65
2023/01/06 11:09:38;;;;;;;;;0.00;0.00;;;;;10.31;73.49;101672.00;5061557;28;10566;-68
2023/01/06 11:12:15;;;;;;;;;0.00;0.00;;;;;10.35;73.40;101671.47;5069112;28;10342;-68
2023/01/06 11:14:42;;;;;;;;;0.00;0.00;;;;;10.29;72.93;101674.88;5061834;28;9760;-67
2023/01/06 11:17:13;;;;;;;;;0.00;0.00;;;;;10.23;72.83;101674.69;5063099;28;9651;-68
2023/01/06 11:19:43;;;;;;;;;2.00;0.00;;;;;10.19;72.91;101684.94;5063475;28;9690;-69
2023/01/06 11:22:33;;;;;;;;;0.00;0.00;;;;;10.25;73.13;101683.44;5066273;28;9950;-69
2023/01/06 11:25:00;;;;;;;;;0.00;0.00;;;;;10.27;73.27;101681.44;5055328;28;9591;-68
2023/01/06 11:27:27;;;;;;;;;1.00;0.00;;;;;10.29;72.78;101685.66;5054050;28;9579;-70
2023/01/06 11:29:53;;;;;;;;;0.00;0.00;;;;;10.29;73.13;101687.47;5061304;28;9710;-68
2023/01/06 11:32:28;;;;;;;;;1.00;0.00;;;;;10.41;74.62;101678.00;5063497;28;9868;-69
2023/01/06 11:35:01;;;;;;;;;0.25;0.00;;;;;10.49;73.92;101675.34;5057908;28;9645;-69
2023/01/06 11:37:31;;;;;;;;;0.00;0.00;;;;;10.48;73.41;101675.47;5066999;28;10356;-69
2023/01/06 11:39:58;;;;;;;;;0.00;0.00;;;;;10.52;73.19;101672.28;5062150;28;9693;-69
2023/01/06 11:42:38;;;;;;;;;1.00;0.00;;;;;10.46;72.86;101669.44;5066973;28;9607;-67
2023/01/06 11:45:05;;;;;;;;;0.75;0.00;;;;;10.42;73.15;101674.34;5065268;28;9715;-69
2023/01/06 11:47:33;;;;;;;;;0.00;0.00;;;;;10.35;73.01;101667.97;5068124;28;9655;-69
2023/01/06 11:50:00;;;;;;;;;1.00;0.00;;;;;10.33;72.71;101676.22;5061461;28;9625;-68
2023/01/06 11:52:30;;;;;;;;;0.75;0.00;;;;;10.31;72.81;101667.47;5071147;28;9983;-67
2023/01/06 11:55:07;;;;;;;;;0.00;0.00;;;;;10.27;72.79;101660.75;5066300;28;9974;-66